EKVJ/STA METAR and TAF weather

Enter ICAO airport designator
Station Type Date Time Source
EKVJ METAR 2020/02/20 11:50 UTC NOAA

EKVJ 201150Z 21020KT 3500 -DZ BR SCT005 BKN008 07/07 Q1002


Station Type Date Time Source
EKVJ Decoded METAR 2020/02/20 11:50 UTC NOAA

Stauning Lufthavn, Denmark (EKVJ) 56-00N 008-21E 5M
Feb 20, 2020 - 06:50 AM EST / 2020.02.20 1150 UTC
Wind: from the SSW (210 degrees) at 23 MPH (20 KT):0
Visibility: 2 mile(s):0
Sky conditions: mostly cloudy
Weather: light drizzle; mist
Temperature: 44 F (7 C)
Dew Point: 44 F (7 C)
Relative Humidity: 100%
Pressure (altimeter): 29.59 in. Hg (1002 hPa)
ob: EKVJ 201150Z 21020KT 3500 -DZ BR SCT005 BKN008 07/07 Q1002
cycle: 12

Station Type Date Time Source
EKVJ TAF UTC NOAA

Error!

Example: see airport list